Terminal Aerodrome Forecast
Issued by NWS

Current Version | Previous Version | Text Only | Print | Product List | Glossary Off
Versions: 1 2 3 4 5 6 7 8 9 10 11 12 13 14 15 16 17 18 19 20 21

512
FTUS41 KILN 291734
TAFLUK
TAF
KLUK 291734Z 2918/3018 04005KT P6SM OVC028
      TEMPO 2918/2920 OVC018
     FM292200 VRB04KT P6SM -SHRA SCT025 BKN040
     FM300300 VRB04KT 3SM SHRA BR OVC015
     FM300900 VRB04KT 4SM -SHRA BR OVC008
     FM301300 14004KT P6SM VCSH OVC015=

USA.gov is the U.S. government's official web portal to all federal, state and local government web resources and services.